KEOK/EOK METAR and TAF weather

Enter ICAO airport designator
Station Type Date Time Source
KEOK METAR 2019/12/09 00:35 UTC NOAA

KEOK 090035Z AUTO 13006KT 10SM OVC035 10/07 A2974 RMK AO2


Station Type Date Time Source
KEOK Decoded METAR 2019/12/09 00:35 UTC NOAA

Keokuk Municipal, IA, United States (KEOK) 40-28N 091-26W
Dec 08, 2019 - 07:35 PM EST / 2019.12.09 0035 UTC
Wind: from the SE (130 degrees) at 7 MPH (6 KT):0
Visibility: 10 mile(s):0
Sky conditions: overcast
Temperature: 50 F (10 C)
Dew Point: 44 F (7 C)
Relative Humidity: 81%
Pressure (altimeter): 29.74 in. Hg (1007 hPa)
ob: KEOK 090035Z AUTO 13006KT 10SM OVC035 10/07 A2974 RMK AO2
cycle: 0

Station Type Date Time Source
KEOK TAF UTC NOAA

Error!

Example: see airport list